sensor_id;sensor_type;location;lat;lon;timestamp;temperature;humidity
29663;DHT22;16578;53.266;7.920;2023-05-07T00:02:13;14.40;76.80
29663;DHT22;16578;53.266;7.920;2023-05-07T00:04:39;14.40;76.80
29663;DHT22;16578;53.266;7.920;2023-05-07T00:07:05;14.40;76.80
29663;DHT22;16578;53.266;7.920;2023-05-07T00:09:30;14.40;76.80
29663;DHT22;16578;53.266;7.920;2023-05-07T00:11:56;14.40;76.80
29663;DHT22;16578;53.266;7.920;2023-05-07T00:14:22;14.40;76.80
29663;DHT22;16578;53.266;7.920;2023-05-07T00:16:47;14.40;76.70
29663;DHT22;16578;53.266;7.920;2023-05-07T00:19:13;14.40;76.80
29663;DHT22;16578;53.266;7.920;2023-05-07T00:21:38;14.40;76.80
29663;DHT22;16578;53.266;7.920;2023-05-07T00:24:04;14.40;76.80
29663;DHT22;16578;53.266;7.920;2023-05-07T00:26:29;14.40;76.80
29663;DHT22;16578;53.266;7.920;2023-05-07T00:28:55;14.40;77.00
29663;DHT22;16578;53.266;7.920;2023-05-07T00:31:21;14.40;76.80
29663;DHT22;16578;53.266;7.920;2023-05-07T00:33:46;14.40;76.80
29663;DHT22;16578;53.266;7.920;2023-05-07T00:36:12;14.40;76.80
29663;DHT22;16578;53.266;7.920;2023-05-07T00:38:37;14.40;76.80
29663;DHT22;16578;53.266;7.920;2023-05-07T00:41:03;14.40;76.80
29663;DHT22;16578;53.266;7.920;2023-05-07T00:43:28;14.40;76.80
29663;DHT22;16578;53.266;7.920;2023-05-07T00:45:54;14.30;76.70
29663;DHT22;16578;53.266;7.920;2023-05-07T00:48:20;14.30;76.70
29663;DHT22;16578;53.266;7.920;2023-05-07T00:50:46;14.30;76.70
29663;DHT22;16578;53.266;7.920;2023-05-07T00:53:13;14.30;76.70
29663;DHT22;16578;53.266;7.920;2023-05-07T00:55:39;14.30;76.70
29663;DHT22;16578;53.266;7.920;2023-05-07T00:58:05;14.20;77.60
29663;DHT22;16578;53.266;7.920;2023-05-07T01:00:31;14.20;76.70
29663;DHT22;16578;53.266;7.920;2023-05-07T01:02:57;14.20;76.80
29663;DHT22;16578;53.266;7.920;2023-05-07T01:05:24;14.20;76.80
29663;DHT22;16578;53.266;7.920;2023-05-07T01:07:50;14.20;77.00
29663;DHT22;16578;53.266;7.920;2023-05-07T01:10:17;14.20;77.00
29663;DHT22;16578;53.266;7.920;2023-05-07T01:12:43;14.20;76.90
29663;DHT22;16578;53.266;7.920;2023-05-07T01:15:10;14.10;76.90
29663;DHT22;16578;53.266;7.920;2023-05-07T01:17:36;14.10;77.00
29663;DHT22;16578;53.266;7.920;2023-05-07T01:20:04;14.10;76.90
29663;DHT22;16578;53.266;7.920;2023-05-07T01:22:40;14.10;77.10
29663;DHT22;16578;53.266;7.920;2023-05-07T01:25:07;14.10;77.20
29663;DHT22;16578;53.266;7.920;2023-05-07T01:27:33;14.00;77.10
29663;DHT22;16578;53.266;7.920;2023-05-07T01:30:00;14.00;77.20
29663;DHT22;16578;53.266;7.920;2023-05-07T01:35:07;14.00;77.10
29663;DHT22;16578;53.266;7.920;2023-05-07T01:37:33;14.00;77.20
29663;DHT22;16578;53.266;7.920;2023-05-07T01:40:00;13.90;77.10
29663;DHT22;16578;53.266;7.920;2023-05-07T01:42:26;13.90;77.00
29663;DHT22;16578;53.266;7.920;2023-05-07T01:44:52;13.90;77.10
29663;DHT22;16578;53.266;7.920;2023-05-07T01:47:19;13.90;77.00
29663;DHT22;16578;53.266;7.920;2023-05-07T01:49:45;13.80;77.10
29663;DHT22;16578;53.266;7.920;2023-05-07T01:52:11;13.90;77.20
29663;DHT22;16578;53.266;7.920;2023-05-07T01:54:37;13.80;77.10
29663;DHT22;16578;53.266;7.920;2023-05-07T01:57:03;13.80;77.10
29663;DHT22;16578;53.266;7.920;2023-05-07T01:59:28;13.80;77.00
29663;DHT22;16578;53.266;7.920;2023-05-07T02:01:54;13.70;77.00
29663;DHT22;16578;53.266;7.920;2023-05-07T02:04:19;13.70;76.90
29663;DHT22;16578;53.266;7.920;2023-05-07T02:06:45;13.70;76.90
29663;DHT22;16578;53.266;7.920;2023-05-07T02:09:11;13.60;77.00
29663;DHT22;16578;53.266;7.920;2023-05-07T02:11:36;13.60;77.20
29663;DHT22;16578;53.266;7.920;2023-05-07T02:14:02;13.60;77.30
29663;DHT22;16578;53.266;7.920;2023-05-07T02:16:27;13.60;77.40
29663;DHT22;16578;53.266;7.920;2023-05-07T02:18:53;13.50;77.30
29663;DHT22;16578;53.266;7.920;2023-05-07T02:21:18;13.50;77.20
29663;DHT22;16578;53.266;7.920;2023-05-07T02:23:44;13.50;77.40
29663;DHT22;16578;53.266;7.920;2023-05-07T02:26:10;13.50;77.30
29663;DHT22;16578;53.266;7.920;2023-05-07T02:28:36;13.50;77.40
29663;DHT22;16578;53.266;7.920;2023-05-07T02:31:05;13.50;77.40
29663;DHT22;16578;53.266;7.920;2023-05-07T02:33:30;13.50;77.30
29663;DHT22;16578;53.266;7.920;2023-05-07T02:35:56;13.40;77.80
29663;DHT22;16578;53.266;7.920;2023-05-07T02:38:22;13.40;77.30
29663;DHT22;16578;53.266;7.920;2023-05-07T02:40:48;13.40;77.40
29663;DHT22;16578;53.266;7.920;2023-05-07T02:43:14;13.40;77.40
29663;DHT22;16578;53.266;7.920;2023-05-07T02:45:39;13.40;77.40
29663;DHT22;16578;53.266;7.920;2023-05-07T02:48:05;13.40;77.30
29663;DHT22;16578;53.266;7.920;2023-05-07T02:50:31;13.30;77.20
29663;DHT22;16578;53.266;7.920;2023-05-07T02:52:58;13.30;77.30
29663;DHT22;16578;53.266;7.920;2023-05-07T02:55:23;13.30;77.50
29663;DHT22;16578;53.266;7.920;2023-05-07T02:57:49;13.20;77.30
29663;DHT22;16578;53.266;7.920;2023-05-07T03:00:17;13.20;77.50
29663;DHT22;16578;53.266;7.920;2023-05-07T03:02:43;13.20;77.50
29663;DHT22;16578;53.266;7.920;2023-05-07T03:05:09;13.20;77.60
29663;DHT22;16578;53.266;7.920;2023-05-07T03:07:35;13.20;77.70
29663;DHT22;16578;53.266;7.920;2023-05-07T03:10:01;13.10;77.80
29663;DHT22;16578;53.266;7.920;2023-05-07T03:12:26;13.20;77.80
29663;DHT22;16578;53.266;7.920;2023-05-07T03:14:52;13.20;77.90
29663;DHT22;16578;53.266;7.920;2023-05-07T03:17:17;13.10;77.90
29663;DHT22;16578;53.266;7.920;2023-05-07T03:19:43;13.10;77.90
29663;DHT22;16578;53.266;7.920;2023-05-07T03:22:08;13.10;78.00
29663;DHT22;16578;53.266;7.920;2023-05-07T03:24:34;13.10;77.90
29663;DHT22;16578;53.266;7.920;2023-05-07T03:26:59;13.10;78.00
29663;DHT22;16578;53.266;7.920;2023-05-07T03:29:26;13.10;78.00
29663;DHT22;16578;53.266;7.920;2023-05-07T03:31:52;13.10;78.00
29663;DHT22;16578;53.266;7.920;2023-05-07T03:34:17;13.00;77.90
29663;DHT22;16578;53.266;7.920;2023-05-07T03:36:50;13.00;78.10
29663;DHT22;16578;53.266;7.920;2023-05-07T03:39:15;13.00;78.10
29663;DHT22;16578;53.266;7.920;2023-05-07T03:41:41;13.00;78.10
29663;DHT22;16578;53.266;7.920;2023-05-07T03:44:06;13.00;78.10
29663;DHT22;16578;53.266;7.920;2023-05-07T03:46:33;12.90;78.20
29663;DHT22;16578;53.266;7.920;2023-05-07T03:48:58;12.90;78.20
29663;DHT22;16578;53.266;7.920;2023-05-07T03:51:24;12.90;78.20
29663;DHT22;16578;53.266;7.920;2023-05-07T03:53:51;12.90;78.40
29663;DHT22;16578;53.266;7.920;2023-05-07T03:56:19;12.90;78.40
29663;DHT22;16578;53.266;7.920;2023-05-07T03:58:47;12.90;78.40
29663;DHT22;16578;53.266;7.920;2023-05-07T04:01:12;12.90;78.40
29663;DHT22;16578;53.266;7.920;2023-05-07T04:03:38;12.90;78.40
29663;DHT22;16578;53.266;7.920;2023-05-07T04:06:03;12.90;78.60
29663;DHT22;16578;53.266;7.920;2023-05-07T04:08:29;12.90;78.50
29663;DHT22;16578;53.266;7.920;2023-05-07T04:10:55;12.80;79.20
29663;DHT22;16578;53.266;7.920;2023-05-07T04:13:21;12.80;78.50
29663;DHT22;16578;53.266;7.920;2023-05-07T04:15:46;12.80;78.50
29663;DHT22;16578;53.266;7.920;2023-05-07T04:18:14;12.80;78.50
29663;DHT22;16578;53.266;7.920;2023-05-07T04:20:40;12.80;78.50
29663;DHT22;16578;53.266;7.920;2023-05-07T04:23:05;12.70;78.50
29663;DHT22;16578;53.266;7.920;2023-05-07T04:25:31;12.70;78.60
29663;DHT22;16578;53.266;7.920;2023-05-07T04:27:56;12.80;78.80
29663;DHT22;16578;53.266;7.920;2023-05-07T04:30:22;12.80;78.70
29663;DHT22;16578;53.266;7.920;2023-05-07T04:32:47;12.70;78.60
29663;DHT22;16578;53.266;7.920;2023-05-07T04:35:13;12.70;78.60
29663;DHT22;16578;53.266;7.920;2023-05-07T04:37:39;12.70;78.70
29663;DHT22;16578;53.266;7.920;2023-05-07T04:40:06;12.70;78.60
29663;DHT22;16578;53.266;7.920;2023-05-07T04:42:32;12.70;78.80
29663;DHT22;16578;53.266;7.920;2023-05-07T04:44:57;12.70;78.70
29663;DHT22;16578;53.266;7.920;2023-05-07T04:47:23;12.70;78.60
29663;DHT22;16578;53.266;7.920;2023-05-07T04:49:48;12.70;78.60
29663;DHT22;16578;53.266;7.920;2023-05-07T04:52:14;12.70;78.70
29663;DHT22;16578;53.266;7.920;2023-05-07T04:54:40;12.70;78.70
29663;DHT22;16578;53.266;7.920;2023-05-07T04:57:06;12.70;78.70
29663;DHT22;16578;53.266;7.920;2023-05-07T04:59:32;12.70;78.70
29663;DHT22;16578;53.266;7.920;2023-05-07T05:01:58;12.70;78.70
29663;DHT22;16578;53.266;7.920;2023-05-07T05:04:23;12.70;78.80
29663;DHT22;16578;53.266;7.920;2023-05-07T05:06:49;12.70;78.90
29663;DHT22;16578;53.266;7.920;2023-05-07T05:09:15;12.70;78.90
29663;DHT22;16578;53.266;7.920;2023-05-07T05:11:41;12.70;78.90
29663;DHT22;16578;53.266;7.920;2023-05-07T05:14:06;12.70;78.90
29663;DHT22;16578;53.266;7.920;2023-05-07T05:16:32;12.70;79.00
29663;DHT22;16578;53.266;7.920;2023-05-07T05:18:58;12.70;79.10
29663;DHT22;16578;53.266;7.920;2023-05-07T05:21:24;12.70;79.00
29663;DHT22;16578;53.266;7.920;2023-05-07T05:23:49;12.70;78.90
29663;DHT22;16578;53.266;7.920;2023-05-07T05:26:15;12.70;79.00
29663;DHT22;16578;53.266;7.920;2023-05-07T05:28:41;12.70;79.00
29663;DHT22;16578;53.266;7.920;2023-05-07T05:31:06;12.70;79.00
29663;DHT22;16578;53.266;7.920;2023-05-07T05:33:32;12.70;79.00
29663;DHT22;16578;53.266;7.920;2023-05-07T05:35:57;12.70;79.10
29663;DHT22;16578;53.266;7.920;2023-05-07T05:38:23;12.80;79.10
29663;DHT22;16578;53.266;7.920;2023-05-07T05:40:48;12.80;79.00
29663;DHT22;16578;53.266;7.920;2023-05-07T05:43:14;12.80;79.00
29663;DHT22;16578;53.266;7.920;2023-05-07T05:45:40;12.80;79.10
29663;DHT22;16578;53.266;7.920;2023-05-07T05:48:05;12.80;79.00
29663;DHT22;16578;53.266;7.920;2023-05-07T05:50:31;12.80;78.80
29663;DHT22;16578;53.266;7.920;2023-05-07T05:52:57;12.80;78.90
29663;DHT22;16578;53.266;7.920;2023-05-07T05:55:23;12.80;78.90
29663;DHT22;16578;53.266;7.920;2023-05-07T05:57:49;12.80;78.90
29663;DHT22;16578;53.266;7.920;2023-05-07T06:00:16;12.80;78.90
29663;DHT22;16578;53.266;7.920;2023-05-07T06:02:41;12.80;78.90
29663;DHT22;16578;53.266;7.920;2023-05-07T06:05:08;12.90;79.00
29663;DHT22;16578;53.266;7.920;2023-05-07T06:07:34;12.90;79.00
29663;DHT22;16578;53.266;7.920;2023-05-07T06:10:00;12.90;79.10
29663;DHT22;16578;53.266;7.920;2023-05-07T06:12:26;12.90;79.00
29663;DHT22;16578;53.266;7.920;2023-05-07T06:14:51;12.90;79.10
29663;DHT22;16578;53.266;7.920;2023-05-07T06:17:17;12.80;79.10
29663;DHT22;16578;53.266;7.920;2023-05-07T06:19:43;12.80;79.20
29663;DHT22;16578;53.266;7.920;2023-05-07T06:22:08;12.80;79.20
29663;DHT22;16578;53.266;7.920;2023-05-07T06:24:34;12.80;79.30
29663;DHT22;16578;53.266;7.920;2023-05-07T06:26:59;12.80;79.20
29663;DHT22;16578;53.266;7.920;2023-05-07T06:29:25;12.80;79.30
29663;DHT22;16578;53.266;7.920;2023-05-07T06:31:55;12.80;79.30
29663;DHT22;16578;53.266;7.920;2023-05-07T06:34:21;12.90;79.30
29663;DHT22;16578;53.266;7.920;2023-05-07T06:36:46;12.90;79.50
29663;DHT22;16578;53.266;7.920;2023-05-07T06:39:12;12.90;79.40
29663;DHT22;16578;53.266;7.920;2023-05-07T06:41:37;12.90;79.40
29663;DHT22;16578;53.266;7.920;2023-05-07T06:44:04;12.90;79.30
29663;DHT22;16578;53.266;7.920;2023-05-07T06:46:30;12.90;79.30
29663;DHT22;16578;53.266;7.920;2023-05-07T06:48:56;13.00;79.50
29663;DHT22;16578;53.266;7.920;2023-05-07T06:51:22;13.00;80.30
29663;DHT22;16578;53.266;7.920;2023-05-07T06:53:48;13.00;79.40
29663;DHT22;16578;53.266;7.920;2023-05-07T06:56:13;13.00;79.50
29663;DHT22;16578;53.266;7.920;2023-05-07T06:58:39;13.10;80.40
29663;DHT22;16578;53.266;7.920;2023-05-07T07:01:04;13.10;79.40
29663;DHT22;16578;53.266;7.920;2023-05-07T07:03:30;13.10;79.30
29663;DHT22;16578;53.266;7.920;2023-05-07T07:05:55;13.10;79.20
29663;DHT22;16578;53.266;7.920;2023-05-07T07:08:22;13.10;79.20
29663;DHT22;16578;53.266;7.920;2023-05-07T07:10:47;13.10;79.10
29663;DHT22;16578;53.266;7.920;2023-05-07T07:13:13;13.10;79.20
29663;DHT22;16578;53.266;7.920;2023-05-07T07:15:39;13.10;79.20
29663;DHT22;16578;53.266;7.920;2023-05-07T07:18:05;13.10;79.20
29663;DHT22;16578;53.266;7.920;2023-05-07T07:20:31;13.10;79.30
29663;DHT22;16578;53.266;7.920;2023-05-07T07:22:56;13.20;79.40
29663;DHT22;16578;53.266;7.920;2023-05-07T07:25:22;13.20;79.20
29663;DHT22;16578;53.266;7.920;2023-05-07T07:27:49;13.20;79.30
29663;DHT22;16578;53.266;7.920;2023-05-07T07:30:15;13.20;79.20
29663;DHT22;16578;53.266;7.920;2023-05-07T07:32:40;13.20;79.20
29663;DHT22;16578;53.266;7.920;2023-05-07T07:35:07;13.30;79.10
29663;DHT22;16578;53.266;7.920;2023-05-07T07:37:32;13.30;78.90
29663;DHT22;16578;53.266;7.920;2023-05-07T07:39:58;13.30;78.80
29663;DHT22;16578;53.266;7.920;2023-05-07T07:42:23;13.30;78.80
29663;DHT22;16578;53.266;7.920;2023-05-07T07:44:49;13.30;78.90
29663;DHT22;16578;53.266;7.920;2023-05-07T07:47:15;13.30;79.00
29663;DHT22;16578;53.266;7.920;2023-05-07T07:49:40;13.30;79.00
29663;DHT22;16578;53.266;7.920;2023-05-07T07:52:06;13.30;78.50
29663;DHT22;16578;53.266;7.920;2023-05-07T07:54:31;13.30;78.80
29663;DHT22;16578;53.266;7.920;2023-05-07T07:56:57;13.30;78.80
29663;DHT22;16578;53.266;7.920;2023-05-07T07:59:23;13.30;78.80
29663;DHT22;16578;53.266;7.920;2023-05-07T08:01:49;13.30;78.90
29663;DHT22;16578;53.266;7.920;2023-05-07T08:04:15;13.40;78.80
29663;DHT22;16578;53.266;7.920;2023-05-07T08:06:41;13.40;78.70
29663;DHT22;16578;53.266;7.920;2023-05-07T08:09:07;13.40;78.90
29663;DHT22;16578;53.266;7.920;2023-05-07T08:11:34;13.40;78.90
29663;DHT22;16578;53.266;7.920;2023-05-07T08:13:59;13.40;78.70
29663;DHT22;16578;53.266;7.920;2023-05-07T08:16:25;13.40;78.60
29663;DHT22;16578;53.266;7.920;2023-05-07T08:18:51;13.40;78.50
29663;DHT22;16578;53.266;7.920;2023-05-07T08:21:16;13.40;78.70
29663;DHT22;16578;53.266;7.920;2023-05-07T08:23:42;13.50;78.90
29663;DHT22;16578;53.266;7.920;2023-05-07T08:26:08;13.50;78.80
29663;DHT22;16578;53.266;7.920;2023-05-07T08:28:34;13.50;78.50
29663;DHT22;16578;53.266;7.920;2023-05-07T08:31:00;13.50;78.30
29663;DHT22;16578;53.266;7.920;2023-05-07T08:33:26;13.60;78.30
29663;DHT22;16578;53.266;7.920;2023-05-07T08:35:52;13.60;78.40
29663;DHT22;16578;53.266;7.920;2023-05-07T08:38:17;13.60;78.50
29663;DHT22;16578;53.266;7.920;2023-05-07T08:40:43;13.60;78.50
29663;DHT22;16578;53.266;7.920;2023-05-07T08:43:12;13.70;78.10
29663;DHT22;16578;53.266;7.920;2023-05-07T08:45:39;13.70;77.90
29663;DHT22;16578;53.266;7.920;2023-05-07T08:48:08;13.70;77.90
29663;DHT22;16578;53.266;7.920;2023-05-07T08:50:38;13.70;77.90
29663;DHT22;16578;53.266;7.920;2023-05-07T08:53:03;13.80;77.90
29663;DHT22;16578;53.266;7.920;2023-05-07T08:55:29;13.60;77.90
29663;DHT22;16578;53.266;7.920;2023-05-07T08:57:55;13.70;77.90
29663;DHT22;16578;53.266;7.920;2023-05-07T09:00:21;13.70;77.60
29663;DHT22;16578;53.266;7.920;2023-05-07T09:02:46;13.70;77.20
29663;DHT22;16578;53.266;7.920;2023-05-07T09:05:12;13.70;77.40
29663;DHT22;16578;53.266;7.920;2023-05-07T09:07:37;13.80;77.60
29663;DHT22;16578;53.266;7.920;2023-05-07T09:10:04;13.80;77.70
29663;DHT22;16578;53.266;7.920;2023-05-07T09:12:30;13.80;77.80
29663;DHT22;16578;53.266;7.920;2023-05-07T09:14:56;13.90;77.90
29663;DHT22;16578;53.266;7.920;2023-05-07T09:17:21;13.90;77.60
29663;DHT22;16578;53.266;7.920;2023-05-07T09:19:47;13.90;77.70
29663;DHT22;16578;53.266;7.920;2023-05-07T09:22:13;14.00;77.80
29663;DHT22;16578;53.266;7.920;2023-05-07T09:24:39;14.10;77.80
29663;DHT22;16578;53.266;7.920;2023-05-07T09:27:05;14.20;77.70
29663;DHT22;16578;53.266;7.920;2023-05-07T09:29:30;14.20;77.30
29663;DHT22;16578;53.266;7.920;2023-05-07T09:32:01;14.30;76.90
29663;DHT22;16578;53.266;7.920;2023-05-07T09:34:29;14.40;76.90
29663;DHT22;16578;53.266;7.920;2023-05-07T09:36:55;14.50;76.70
29663;DHT22;16578;53.266;7.920;2023-05-07T09:39:23;14.50;76.20
29663;DHT22;16578;53.266;7.920;2023-05-07T09:41:49;14.60;76.00
29663;DHT22;16578;53.266;7.920;2023-05-07T09:44:15;14.60;75.80
29663;DHT22;16578;53.266;7.920;2023-05-07T09:46:42;14.70;75.50
29663;DHT22;16578;53.266;7.920;2023-05-07T09:49:11;14.80;75.50
29663;DHT22;16578;53.266;7.920;2023-05-07T09:52:06;14.90;75.80
29663;DHT22;16578;53.266;7.920;2023-05-07T09:54:35;15.00;75.30
29663;DHT22;16578;53.266;7.920;2023-05-07T09:57:04;15.10;76.00
29663;DHT22;16578;53.266;7.920;2023-05-07T09:59:31;15.20;76.00
29663;DHT22;16578;53.266;7.920;2023-05-07T10:01:59;15.40;75.90
29663;DHT22;16578;53.266;7.920;2023-05-07T10:04:27;15.50;74.50
29663;DHT22;16578;53.266;7.920;2023-05-07T10:06:54;15.60;73.90
29663;DHT22;16578;53.266;7.920;2023-05-07T10:09:21;15.70;73.70
29663;DHT22;16578;53.266;7.920;2023-05-07T10:11:50;15.80;73.80
29663;DHT22;16578;53.266;7.920;2023-05-07T10:14:17;15.80;73.70
29663;DHT22;16578;53.266;7.920;2023-05-07T10:16:43;16.00;73.70
29663;DHT22;16578;53.266;7.920;2023-05-07T10:19:09;16.00;73.10
29663;DHT22;16578;53.266;7.920;2023-05-07T10:21:48;16.10;72.60
29663;DHT22;16578;53.266;7.920;2023-05-07T10:24:27;16.20;72.30
29663;DHT22;16578;53.266;7.920;2023-05-07T10:26:55;16.30;71.80
29663;DHT22;16578;53.266;7.920;2023-05-07T10:29:32;16.30;71.90
29663;DHT22;16578;53.266;7.920;2023-05-07T10:34:54;16.50;71.90
29663;DHT22;16578;53.266;7.920;2023-05-07T10:37:20;16.50;72.10
29663;DHT22;16578;53.266;7.920;2023-05-07T10:39:46;16.60;71.60
29663;DHT22;16578;53.266;7.920;2023-05-07T10:42:13;16.70;71.70
29663;DHT22;16578;53.266;7.920;2023-05-07T10:44:39;16.80;71.60
29663;DHT22;16578;53.266;7.920;2023-05-07T10:47:13;16.90;70.90
29663;DHT22;16578;53.266;7.920;2023-05-07T10:54:44;17.10;70.00
29663;DHT22;16578;53.266;7.920;2023-05-07T10:59:57;17.20;68.40
29663;DHT22;16578;53.266;7.920;2023-05-07T11:02:22;17.20;68.90
29663;DHT22;16578;53.266;7.920;2023-05-07T11:05:23;17.20;69.00
29663;DHT22;16578;53.266;7.920;2023-05-07T11:07:56;17.30;67.80
29663;DHT22;16578;53.266;7.920;2023-05-07T11:10:22;17.30;68.10
29663;DHT22;16578;53.266;7.920;2023-05-07T11:12:50;17.20;67.60
29663;DHT22;16578;53.266;7.920;2023-05-07T11:15:34;17.20;67.80
29663;DHT22;16578;53.266;7.920;2023-05-07T11:18:00;17.20;68.00
29663;DHT22;16578;53.266;7.920;2023-05-07T11:20:58;17.10;68.70
29663;DHT22;16578;53.266;7.920;2023-05-07T11:26:07;17.20;68.50
29663;DHT22;16578;53.266;7.920;2023-05-07T11:28:41;17.20;68.40
29663;DHT22;16578;53.266;7.920;2023-05-07T11:31:07;17.20;68.10
29663;DHT22;16578;53.266;7.920;2023-05-07T11:33:34;17.20;68.00
29663;DHT22;16578;53.266;7.920;2023-05-07T11:36:02;17.20;67.70
29663;DHT22;16578;53.266;7.920;2023-05-07T11:38:29;17.10;67.90
29663;DHT22;16578;53.266;7.920;2023-05-07T11:40:56;17.10;67.80
29663;DHT22;16578;53.266;7.920;2023-05-07T11:43:22;17.20;68.40
29663;DHT22;16578;53.266;7.920;2023-05-07T11:45:48;17.20;68.30
29663;DHT22;16578;53.266;7.920;2023-05-07T11:48:15;17.20;69.20
29663;DHT22;16578;53.266;7.920;2023-05-07T11:50:59;17.20;68.20
29663;DHT22;16578;53.266;7.920;2023-05-07T11:53:26;17.30;67.90
29663;DHT22;16578;53.266;7.920;2023-05-07T11:55:53;17.30;68.20
29663;DHT22;16578;53.266;7.920;2023-05-07T11:58:24;17.30;68.10
29663;DHT22;16578;53.266;7.920;2023-05-07T12:00:51;17.40;67.80
29663;DHT22;16578;53.266;7.920;2023-05-07T12:03:17;17.40;68.20
29663;DHT22;16578;53.266;7.920;2023-05-07T12:05:44;17.50;68.00
29663;DHT22;16578;53.266;7.920;2023-05-07T12:08:14;17.50;67.50
29663;DHT22;16578;53.266;7.920;2023-05-07T12:10:44;17.60;68.10
29663;DHT22;16578;53.266;7.920;2023-05-07T12:13:20;17.60;68.10
29663;DHT22;16578;53.266;7.920;2023-05-07T12:15:46;17.80;68.50
29663;DHT22;16578;53.266;7.920;2023-05-07T12:18:15;17.80;68.00
29663;DHT22;16578;53.266;7.920;2023-05-07T12:20:41;17.90;67.60
29663;DHT22;16578;53.266;7.920;2023-05-07T12:23:07;17.90;66.80
29663;DHT22;16578;53.266;7.920;2023-05-07T12:25:37;17.90;66.80
29663;DHT22;16578;53.266;7.920;2023-05-07T12:28:03;17.90;66.80
29663;DHT22;16578;53.266;7.920;2023-05-07T12:30:38;18.00;66.40
29663;DHT22;16578;53.266;7.920;2023-05-07T12:33:04;18.00;66.70
29663;DHT22;16578;53.266;7.920;2023-05-07T12:35:31;18.00;66.20
29663;DHT22;16578;53.266;7.920;2023-05-07T12:37:58;17.90;66.20
29663;DHT22;16578;53.266;7.920;2023-05-07T12:40:38;18.00;66.30
29663;DHT22;16578;53.266;7.920;2023-05-07T12:43:04;18.00;66.40
29663;DHT22;16578;53.266;7.920;2023-05-07T12:45:30;18.00;66.70
29663;DHT22;16578;53.266;7.920;2023-05-07T12:47:56;18.00;66.30
29663;DHT22;16578;53.266;7.920;2023-05-07T12:50:26;18.00;66.30
29663;DHT22;16578;53.266;7.920;2023-05-07T12:52:56;18.00;66.20
29663;DHT22;16578;53.266;7.920;2023-05-07T12:55:21;18.00;66.10
29663;DHT22;16578;53.266;7.920;2023-05-07T12:57:50;18.00;66.20
29663;DHT22;16578;53.266;7.920;2023-05-07T13:00:17;18.10;66.10
29663;DHT22;16578;53.266;7.920;2023-05-07T13:02:43;18.10;66.00
29663;DHT22;16578;53.266;7.920;2023-05-07T13:05:10;18.20;65.90
29663;DHT22;16578;53.266;7.920;2023-05-07T13:07:35;18.20;65.70
29663;DHT22;16578;53.266;7.920;2023-05-07T13:10:02;18.20;66.10
29663;DHT22;16578;53.266;7.920;2023-05-07T13:12:28;18.30;65.90
29663;DHT22;16578;53.266;7.920;2023-05-07T13:14:53;18.30;65.80
29663;DHT22;16578;53.266;7.920;2023-05-07T13:17:19;18.40;65.10
29663;DHT22;16578;53.266;7.920;2023-05-07T13:19:44;18.40;65.20
29663;DHT22;16578;53.266;7.920;2023-05-07T13:22:10;18.40;65.10
29663;DHT22;16578;53.266;7.920;2023-05-07T13:24:36;18.50;65.00
29663;DHT22;16578;53.266;7.920;2023-05-07T13:27:01;18.50;64.50
29663;DHT22;16578;53.266;7.920;2023-05-07T13:29:28;18.50;64.60
29663;DHT22;16578;53.266;7.920;2023-05-07T13:31:56;18.50;64.50
29663;DHT22;16578;53.266;7.920;2023-05-07T13:34:21;18.50;64.50
29663;DHT22;16578;53.266;7.920;2023-05-07T13:36:47;18.50;64.00
29663;DHT22;16578;53.266;7.920;2023-05-07T13:39:13;18.50;64.40
29663;DHT22;16578;53.266;7.920;2023-05-07T13:41:38;18.50;64.20
29663;DHT22;16578;53.266;7.920;2023-05-07T13:44:04;18.50;63.90
29663;DHT22;16578;53.266;7.920;2023-05-07T13:46:30;18.50;64.20
29663;DHT22;16578;53.266;7.920;2023-05-07T13:48:55;18.50;64.30
29663;DHT22;16578;53.266;7.920;2023-05-07T13:51:21;18.50;64.80
29663;DHT22;16578;53.266;7.920;2023-05-07T13:53:47;18.50;64.90
29663;DHT22;16578;53.266;7.920;2023-05-07T13:56:13;18.50;64.70
29663;DHT22;16578;53.266;7.920;2023-05-07T13:58:39;18.50;64.90
29663;DHT22;16578;53.266;7.920;2023-05-07T14:01:05;18.50;64.70
29663;DHT22;16578;53.266;7.920;2023-05-07T14:03:30;18.50;64.60
29663;DHT22;16578;53.266;7.920;2023-05-07T14:05:58;18.50;64.80
29663;DHT22;16578;53.266;7.920;2023-05-07T14:08:25;18.50;64.80
29663;DHT22;16578;53.266;7.920;2023-05-07T14:10:51;18.50;64.70
29663;DHT22;16578;53.266;7.920;2023-05-07T14:13:16;18.50;64.70
29663;DHT22;16578;53.266;7.920;2023-05-07T14:15:42;18.50;64.50
29663;DHT22;16578;53.266;7.920;2023-05-07T14:18:12;18.50;64.70
29663;DHT22;16578;53.266;7.920;2023-05-07T14:20:37;18.60;64.70
29663;DHT22;16578;53.266;7.920;2023-05-07T14:23:03;18.60;64.60
29663;DHT22;16578;53.266;7.920;2023-05-07T14:25:28;18.60;64.70
29663;DHT22;16578;53.266;7.920;2023-05-07T14:27:54;18.70;64.20
29663;DHT22;16578;53.266;7.920;2023-05-07T14:30:19;18.60;64.10
29663;DHT22;16578;53.266;7.920;2023-05-07T14:32:45;18.70;64.40
29663;DHT22;16578;53.266;7.920;2023-05-07T14:35:11;18.70;64.50
29663;DHT22;16578;53.266;7.920;2023-05-07T14:37:36;18.70;64.80
29663;DHT22;16578;53.266;7.920;2023-05-07T14:40:02;18.70;64.40
29663;DHT22;16578;53.266;7.920;2023-05-07T14:42:27;18.70;64.50
29663;DHT22;16578;53.266;7.920;2023-05-07T14:44:53;18.80;64.60
29663;DHT22;16578;53.266;7.920;2023-05-07T14:47:18;18.80;64.60
29663;DHT22;16578;53.266;7.920;2023-05-07T14:49:44;18.90;64.10
29663;DHT22;16578;53.266;7.920;2023-05-07T14:52:09;18.90;64.70
29663;DHT22;16578;53.266;7.920;2023-05-07T14:54:36;18.90;64.30
29663;DHT22;16578;53.266;7.920;2023-05-07T14:57:02;19.00;64.40
29663;DHT22;16578;53.266;7.920;2023-05-07T14:59:27;19.00;64.00
29663;DHT22;16578;53.266;7.920;2023-05-07T15:01:54;19.00;63.50
29663;DHT22;16578;53.266;7.920;2023-05-07T15:04:19;19.00;63.40
29663;DHT22;16578;53.266;7.920;2023-05-07T15:06:45;19.10;63.70
29663;DHT22;16578;53.266;7.920;2023-05-07T15:09:11;19.10;63.30
29663;DHT22;16578;53.266;7.920;2023-05-07T15:11:37;19.10;63.50
29663;DHT22;16578;53.266;7.920;2023-05-07T15:14:03;19.10;63.50
29663;DHT22;16578;53.266;7.920;2023-05-07T15:16:28;19.10;63.70
29663;DHT22;16578;53.266;7.920;2023-05-07T15:18:54;19.10;63.70
29663;DHT22;16578;53.266;7.920;2023-05-07T15:21:19;19.20;63.70
29663;DHT22;16578;53.266;7.920;2023-05-07T15:23:45;19.20;63.60
29663;DHT22;16578;53.266;7.920;2023-05-07T15:26:11;19.20;63.50
29663;DHT22;16578;53.266;7.920;2023-05-07T15:28:36;19.30;64.30
29663;DHT22;16578;53.266;7.920;2023-05-07T15:31:03;19.30;62.90
29663;DHT22;16578;53.266;7.920;2023-05-07T15:33:29;19.30;62.70
29663;DHT22;16578;53.266;7.920;2023-05-07T15:35:54;19.30;62.60
29663;DHT22;16578;53.266;7.920;2023-05-07T15:38:24;19.30;62.80
29663;DHT22;16578;53.266;7.920;2023-05-07T15:40:49;19.30;62.60
29663;DHT22;16578;53.266;7.920;2023-05-07T15:43:15;19.30;62.40